Terminal Aerodrome Forecast
Issued by NWS North Platte, NE

Home | Current Version | Previous Version | Text Only | Print | Product List | Glossary On
Versions: 1 2 3 4 5 6 7 8 9 10 11 12 13 14 15 16 17
000
FTUS43 KLBF 301945 AAA
TAFVTN
TAF AMD
KVTN 301945Z 3020/3118 19022G30KT P6SM SCT025 SCT040
      TEMPO 3020/3022 BKN025
     FM310100 18015G20KT P6SM SKC
     FM311100 21011KT P6SM SCT150
     FM311400 28010KT P6SM SCT150
     FM311600 32014KT P6SM SCT150 BKN200=

USA.gov is the U.S. government's official web portal to all federal, state and local government web resources and services.